Time;durP1;ratioP1;P1;durP2;ratioP2;P2;SDS_P1;SDS_P2;PMS_P1;PMS_P2;Temp;Humidity;BMP_temperature;BMP_pressure;BME280_temperature;BME280_humidity;BME280_pressure;Samples;Min_cycle;Max_cycle;Signal;HPM_P1;HPM_P2
2022/03/02 00:01:52;;;;;;;;;;;5.60;99.90;;;;;;4870163;29;20029;-88
2022/03/02 00:04:17;;;;;;;9.27;2.13;;;5.60;99.90;;;;;;4871661;29;20350;-88
2022/03/02 00:06:43;;;;;;;10.75;2.28;;;5.50;99.90;;;;;;4865634;29;20085;-88
2022/03/02 00:09:09;;;;;;;11.15;2.97;;;5.50;99.90;;;;;;4867254;29;20029;-88
2022/03/02 00:11:34;;;;;;;12.95;2.88;;;5.50;99.90;;;;;;4873420;29;20127;-87
2022/03/02 00:14:02;;;;;;;8.80;2.63;;;5.50;99.90;;;;;;4874356;29;20074;-88
2022/03/02 00:16:28;;;;;;;14.32;2.88;;;5.50;99.90;;;;;;4868685;29;20054;-88
2022/03/02 00:18:57;;;;;;;11.98;2.55;;;5.50;99.90;;;;;;4870604;29;20068;-88
2022/03/02 00:21:24;;;;;;;12.20;3.70;;;5.50;99.90;;;;;;4873465;29;20123;-89
2022/03/02 00:23:49;;;;;;;11.23;2.83;;;5.50;99.90;;;;;;4884225;29;20072;-88
2022/03/02 00:26:15;;;;;;;7.60;2.47;;;5.40;99.90;;;;;;4882793;29;20492;-89
2022/03/02 00:28:41;;;;;;;10.75;2.95;;;5.50;99.90;;;;;;4881286;29;20025;-88
2022/03/02 00:31:07;;;;;;;9.35;3.55;;;5.40;99.90;;;;;;4877372;29;20032;-89
2022/03/02 00:33:33;;;;;;;11.70;3.90;;;5.40;99.90;;;;;;4874665;29;20033;-88
2022/03/02 00:35:59;;;;;;;8.48;2.83;;;5.40;99.90;;;;;;4870090;29;20126;-89
2022/03/02 00:38:25;;;;;;;8.35;2.88;;;5.40;99.90;;;;;;4872682;29;20025;-87
2022/03/02 00:40:51;;;;;;;9.48;2.78;;;5.40;99.90;;;;;;4872881;29;20082;-89
2022/03/02 00:43:16;;;;;;;11.25;3.38;;;5.40;99.90;;;;;;4871978;29;20452;-87
2022/03/02 00:45:42;;;;;;;13.05;2.50;;;5.40;99.90;;;;;;4872504;29;20507;-88
2022/03/02 00:48:08;;;;;;;11.05;3.20;;;5.40;99.90;;;;;;4872049;29;20036;-88
2022/03/02 00:50:35;;;;;;;9.63;3.58;;;5.40;99.90;;;;;;4872128;29;20033;-88
2022/03/02 00:53:02;;;;;;;12.90;4.03;;;5.40;99.90;;;;;;4872294;29;20081;-88
2022/03/02 00:55:28;;;;;;;9.90;4.28;;;5.40;99.90;;;;;;4872196;29;20125;-88
2022/03/02 00:57:54;;;;;;;7.25;3.65;;;5.30;99.90;;;;;;4869775;29;20121;-89
2022/03/02 01:00:19;;;;;;;11.10;3.70;;;5.40;99.90;;;;;;4870564;29;20026;-88
2022/03/02 01:02:48;;;;;;;7.53;3.55;;;5.40;99.90;;;;;;4870562;29;20507;-88
2022/03/02 01:05:14;;;;;;;9.02;3.83;;;5.30;99.90;;;;;;4874340;29;20033;-88
2022/03/02 01:07:39;;;;;;;10.50;4.35;;;5.40;99.90;;;;;;4871611;29;20024;-88
2022/03/02 01:10:07;;;;;;;7.45;3.75;;;5.40;99.90;;;;;;4871278;29;20045;-88
2022/03/02 01:12:33;;;;;;;15.07;4.28;;;5.40;99.90;;;;;;4871554;29;20034;-88
2022/03/02 01:14:59;;;;;;;10.43;3.60;;;5.30;99.90;;;;;;4870955;29;20049;-87
2022/03/02 01:17:26;;;;;;;10.05;3.85;;;5.40;99.90;;;;;;4871613;29;20035;-89
2022/03/02 01:19:51;;;;;;;13.82;5.32;;;5.40;99.90;;;;;;4871545;29;20472;-88
2022/03/02 01:22:18;;;;;;;12.10;4.20;;;5.50;99.90;;;;;;4868170;29;20025;-88
2022/03/02 01:24:44;;;;;;;12.73;4.30;;;5.50;99.90;;;;;;4870410;29;20116;-88
2022/03/02 01:27:10;;;;;;;7.97;3.92;;;5.50;99.90;;;;;;4873814;29;20060;-88
2022/03/02 01:29:36;;;;;;;14.00;4.82;;;5.60;99.90;;;;;;4869150;29;20039;-87
2022/03/02 01:32:04;;;;;;;16.83;5.13;;;5.50;99.90;;;;;;4870551;29;20377;-89
2022/03/02 01:34:30;;;;;;;13.90;5.32;;;5.50;99.90;;;;;;4870794;29;20033;-88
2022/03/02 01:36:56;;;;;;;12.68;5.32;;;5.50;99.90;;;;;;4869110;29;20033;-88
2022/03/02 01:39:22;;;;;;;11.88;4.85;;;5.50;99.90;;;;;;4870134;29;20029;-88
2022/03/02 01:41:48;;;;;;;12.85;5.65;;;5.50;99.90;;;;;;4871301;29;20494;-89
2022/03/02 01:44:16;;;;;;;16.00;5.70;;;5.40;99.90;;;;;;4874147;29;20115;-88
2022/03/02 01:46:42;;;;;;;15.07;5.75;;;5.40;99.90;;;;;;4871538;29;20033;-89
2022/03/02 01:49:08;;;;;;;10.18;5.00;;;5.40;99.90;;;;;;4871248;29;20031;-88
2022/03/02 01:51:35;;;;;;;14.55;6.05;;;5.40;99.90;;;;;;4873321;29;20033;-88
2022/03/02 01:54:01;;;;;;;19.55;5.60;;;5.40;99.90;;;;;;4871136;29;20021;-89
2022/03/02 01:56:27;;;;;;;12.90;5.57;;;5.40;99.90;;;;;;4871112;29;20025;-89
2022/03/02 01:58:53;;;;;;;14.02;5.18;;;5.30;99.90;;;;;;4870957;29;20029;-89
2022/03/02 02:01:19;;;;;;;10.18;4.90;;;5.30;99.90;;;;;;4869130;29;20021;-89
2022/03/02 02:03:45;;;;;;;16.80;4.95;;;5.30;99.90;;;;;;4871163;29;20033;-88
2022/03/02 02:06:13;;;;;;;11.02;4.72;;;5.30;99.90;;;;;;4870734;29;20034;-88
2022/03/02 02:08:40;;;;;;;14.30;5.00;;;5.30;99.90;;;;;;4870630;29;20396;-88
2022/03/02 02:11:06;;;;;;;12.38;4.80;;;5.30;99.90;;;;;;4871003;29;20061;-88
2022/03/02 02:13:34;;;;;;;11.75;4.13;;;5.20;99.90;;;;;;4870506;29;20057;-89
2022/03/02 02:16:00;;;;;;;11.40;4.65;;;5.20;99.90;;;;;;4871280;29;20053;-88
2022/03/02 02:18:26;;;;;;;15.18;4.93;;;5.20;99.90;;;;;;4872001;29;20021;-88
2022/03/02 02:20:52;;;;;;;13.35;5.18;;;5.20;99.90;;;;;;4870835;29;20634;-88
2022/03/02 02:23:18;;;;;;;11.77;5.20;;;5.20;99.90;;;;;;4872740;29;20035;-89
2022/03/02 02:25:44;;;;;;;11.57;5.30;;;5.20;99.90;;;;;;4870473;29;20032;-88
2022/03/02 02:28:12;;;;;;;12.82;5.18;;;5.20;99.90;;;;;;4870498;29;20044;-89
2022/03/02 02:30:39;;;;;;;13.68;6.20;;;5.20;99.90;;;;;;4868599;29;20044;-90
2022/03/02 02:33:05;;;;;;;16.90;6.47;;;5.20;99.90;;;;;;4870502;29;20478;-89
2022/03/02 02:35:31;;;;;;;17.88;7.78;;;5.20;99.90;;;;;;4872588;29;20036;-89
2022/03/02 02:37:58;;;;;;;17.45;6.47;;;5.20;99.90;;;;;;4870922;29;20026;-87
2022/03/02 02:40:26;;;;;;;18.98;6.57;;;5.20;99.90;;;;;;4868320;29;20476;-89
2022/03/02 02:42:54;;;;;;;20.45;8.27;;;5.20;99.90;;;;;;4868387;29;20355;-88
2022/03/02 02:45:22;;;;;;;17.50;6.25;;;5.20;99.90;;;;;;4874061;29;20036;-89
2022/03/02 02:47:55;;;;;;;13.48;5.93;;;5.20;99.90;;;;;;4872998;29;20032;-89
2022/03/02 02:50:27;;;;;;;11.60;4.75;;;5.20;99.90;;;;;;4868712;29;20124;-89
2022/03/02 02:52:53;;;;;;;14.65;5.60;;;5.20;99.90;;;;;;4868303;29;20026;-89
2022/03/02 02:55:27;;;;;;;12.50;4.97;;;5.20;99.90;;;;;;4870994;29;20076;-89
2022/03/02 02:57:54;;;;;;;7.60;4.03;;;5.20;99.90;;;;;;4868188;29;20044;-88
2022/03/02 03:00:24;;;;;;;12.63;4.82;;;5.20;99.90;;;;;;4871013;29;20025;-89
2022/03/02 03:02:52;;;;;;;9.93;3.88;;;5.20;99.90;;;;;;4868090;29;20049;-88
2022/03/02 03:05:21;;;;;;;9.48;3.80;;;5.20;99.90;;;;;;4868195;29;20120;-89
2022/03/02 03:07:48;;;;;;;8.63;2.92;;;5.20;99.90;;;;;;4868659;29;20116;-89
2022/03/02 03:10:15;;;;;;;7.97;2.80;;;5.20;99.90;;;;;;4867484;29;20053;-89
2022/03/02 03:12:42;;;;;;;5.43;2.65;;;5.20;99.90;;;;;;4869136;29;20396;-90
2022/03/02 03:15:09;;;;;;;9.02;3.20;;;5.20;99.90;;;;;;4869252;29;20053;-89
2022/03/02 03:17:35;;;;;;;10.68;3.75;;;5.20;99.90;;;;;;4868204;29;20025;-89
2022/03/02 03:20:02;;;;;;;6.95;2.50;;;5.20;99.90;;;;;;4870564;29;20025;-89
2022/03/02 03:22:28;;;;;;;5.63;2.90;;;5.20;99.90;;;;;;4867066;29;20099;-90
2022/03/02 03:24:54;;;;;;;6.97;3.08;;;5.20;99.90;;;;;;4869856;29;20671;-90
2022/03/02 03:27:19;;;;;;;10.10;3.92;;;5.20;99.90;;;;;;4868810;29;20028;-88
2022/03/02 03:29:45;;;;;;;8.15;2.97;;;5.20;99.90;;;;;;4872083;29;20036;-90
2022/03/02 03:32:11;;;;;;;8.55;3.58;;;5.30;99.90;;;;;;4873036;29;20030;-91
2022/03/02 03:34:37;;;;;;;9.77;3.75;;;5.30;99.90;;;;;;4874077;29;20025;-89
2022/03/02 03:37:03;;;;;;;11.15;4.13;;;5.30;99.90;;;;;;4870264;29;20541;-90
2022/03/02 03:39:29;;;;;;;10.15;4.57;;;5.30;99.90;;;;;;4873456;29;20021;-90
2022/03/02 03:41:55;;;;;;;9.38;3.83;;;5.30;99.90;;;;;;4887302;29;20021;-90
2022/03/02 03:44:22;;;;;;;10.00;3.75;;;5.30;99.90;;;;;;4883163;29;20029;-90
2022/03/02 03:46:47;;;;;;;10.60;3.60;;;5.30;99.90;;;;;;4879923;29;20033;-89
2022/03/02 03:49:13;;;;;;;10.50;4.10;;;5.30;99.90;;;;;;4877181;29;20037;-90
2022/03/02 03:51:39;;;;;;;10.88;3.50;;;5.30;99.90;;;;;;4875106;29;20440;-88
2022/03/02 03:54:05;;;;;;;10.65;3.85;;;5.30;99.90;;;;;;4871431;29;20060;-89
2022/03/02 03:56:31;;;;;;;7.72;3.65;;;5.30;99.90;;;;;;4871098;29;20033;-90
2022/03/02 03:59:00;;;;;;;11.75;4.03;;;5.30;99.90;;;;;;4870007;29;20130;-90
2022/03/02 04:01:26;;;;;;;12.68;3.95;;;5.30;99.90;;;;;;4868693;29;20025;-91
2022/03/02 04:03:52;;;;;;;12.57;4.72;;;5.40;99.90;;;;;;4869741;29;20108;-90
2022/03/02 04:06:18;;;;;;;17.85;5.22;;;5.30;99.90;;;;;;4870831;29;20116;-90
2022/03/02 04:08:43;;;;;;;11.10;4.32;;;5.40;99.90;;;;;;4869047;29;20037;-90
2022/03/02 04:11:09;;;;;;;11.68;4.20;;;5.40;99.90;;;;;;4872490;29;20033;-89
2022/03/02 04:13:35;;;;;;;8.75;3.97;;;5.40;99.90;;;;;;4867424;29;20113;-92
2022/03/02 04:16:02;;;;;;;8.68;3.65;;;5.40;99.90;;;;;;4868202;29;20025;-91
2022/03/02 04:18:28;;;;;;;9.95;3.58;;;5.40;99.90;;;;;;4868481;29;20387;-88
2022/03/02 04:20:53;;;;;;;10.07;4.05;;;5.40;99.90;;;;;;4869656;29;20041;-91
2022/03/02 04:23:21;;;;;;;6.60;3.58;;;5.40;99.90;;;;;;4869696;29;20021;-92
2022/03/02 04:25:47;;;;;;;9.20;3.35;;;5.40;99.90;;;;;;4872520;29;20033;-90
2022/03/02 04:28:13;;;;;;;9.82;3.80;;;5.40;99.90;;;;;;4869642;29;20033;-90
2022/03/02 04:30:39;;;;;;;8.32;3.70;;;5.40;99.90;;;;;;4870477;29;20053;-93
2022/03/02 04:33:05;;;;;;;11.05;4.07;;;5.40;99.90;;;;;;4868621;29;20024;-90
2022/03/02 04:35:31;;;;;;;6.53;3.35;;;5.50;99.90;;;;;;4869875;29;20044;-90
2022/03/02 04:37:57;;;;;;;7.32;3.00;;;5.60;99.90;;;;;;4870010;29;20022;-92
2022/03/02 04:40:23;;;;;;;9.80;3.42;;;5.60;99.90;;;;;;4868915;29;20056;-91
2022/03/02 04:42:49;;;;;;;7.45;2.70;;;5.60;99.90;;;;;;4869611;29;20064;-90
2022/03/02 04:45:15;;;;;;;6.72;3.15;;;5.70;99.90;;;;;;4870991;29;20383;-91
2022/03/02 04:47:41;;;;;;;6.07;3.20;;;5.70;99.90;;;;;;4869390;29;20029;-91
2022/03/02 04:50:08;;;;;;;6.43;3.45;;;5.70;99.90;;;;;;4869521;29;20041;-91
2022/03/02 04:52:34;;;;;;;7.93;3.20;;;5.70;99.90;;;;;;4871891;29;20057;-91
2022/03/02 04:55:06;;;;;;;7.38;3.42;;;5.70;99.90;;;;;;4868567;29;20542;-91
2022/03/02 04:57:33;;;;;;;8.85;3.38;;;5.70;99.90;;;;;;4873414;29;20467;-91
2022/03/02 04:59:58;;;;;;;6.75;3.50;;;5.70;99.90;;;;;;4873450;29;20034;-91
2022/03/02 05:02:24;;;;;;;8.68;3.22;;;5.70;99.90;;;;;;4871745;29;20021;-91
2022/03/02 05:04:50;;;;;;;6.78;3.58;;;5.70;99.90;;;;;;4875153;29;20178;-90
2022/03/02 05:07:16;;;;;;;6.10;3.10;;;5.70;99.90;;;;;;4870530;29;20037;-90
2022/03/02 05:09:43;;;;;;;6.38;3.38;;;5.70;99.90;;;;;;4872909;29;20546;-91
2022/03/02 05:12:09;;;;;;;8.32;3.78;;;5.70;99.90;;;;;;4870430;29;20052;-91
2022/03/02 05:14:35;;;;;;;7.82;3.40;;;5.60;99.90;;;;;;4872899;29;20045;-91
2022/03/02 05:17:01;;;;;;;8.27;3.20;;;5.60;99.90;;;;;;4872447;29;20033;-91
2022/03/02 05:19:26;;;;;;;8.35;3.33;;;5.70;99.90;;;;;;4878424;29;20132;-91
2022/03/02 05:21:52;;;;;;;7.20;3.58;;;5.70;99.90;;;;;;4878960;29;20021;-93
2022/03/02 05:24:18;;;;;;;9.40;3.80;;;5.70;99.90;;;;;;4882362;29;20039;-89
2022/03/02 05:26:43;;;;;;;9.50;4.38;;;5.60;99.90;;;;;;4881462;29;20116;-91
2022/03/02 05:29:09;;;;;;;11.00;5.30;;;5.60;99.90;;;;;;4881389;29;20129;-90
2022/03/02 05:31:35;;;;;;;13.57;5.93;;;5.60;99.90;;;;;;4875934;29;20036;-91
2022/03/02 05:34:01;;;;;;;12.77;6.28;;;5.60;99.90;;;;;;4877890;29;20036;-90
2022/03/02 05:36:27;;;;;;;15.63;7.03;;;5.70;99.90;;;;;;4876945;29;20036;-90
2022/03/02 05:38:53;;;;;;;20.40;8.00;;;5.60;99.90;;;;;;4877368;29;20125;-90
2022/03/02 05:41:20;;;;;;;18.30;8.52;;;5.60;99.90;;;;;;4871777;29;20025;-90
2022/03/02 05:43:46;;;;;;;16.38;7.13;;;5.60;99.90;;;;;;4872541;29;20029;-90
2022/03/02 05:46:12;;;;;;;20.27;8.40;;;5.60;99.90;;;;;;4876025;29;20029;-90
2022/03/02 05:48:38;;;;;;;21.45;8.82;;;5.60;99.90;;;;;;4874288;29;20029;-91
2022/03/02 05:51:04;;;;;;;18.75;8.43;;;5.60;99.90;;;;;;4875062;29;20041;-90
2022/03/02 05:53:30;;;;;;;26.67;9.27;;;5.60;99.90;;;;;;4871817;29;20029;-91
2022/03/02 05:55:55;;;;;;;25.23;9.98;;;5.60;99.90;;;;;;4873569;29;20025;-90
2022/03/02 05:58:21;;;;;;;23.17;10.15;;;5.60;99.90;;;;;;4871564;29;20393;-90
2022/03/02 06:00:47;;;;;;;23.98;10.13;;;5.60;99.90;;;;;;4871322;29;20021;-91
2022/03/02 06:03:13;;;;;;;37.58;14.43;;;5.60;99.90;;;;;;4871697;29;20393;-90
2022/03/02 06:05:40;;;;;;;41.60;15.48;;;5.60;99.90;;;;;;4874364;29;20025;-89
2022/03/02 06:08:07;;;;;;;44.22;16.65;;;5.60;99.90;;;;;;4873975;29;20044;-91
2022/03/02 06:10:34;;;;;;;45.88;17.08;;;5.60;99.90;;;;;;4873631;29;20090;-90
2022/03/02 06:13:00;;;;;;;55.78;20.13;;;5.50;99.90;;;;;;4878510;29;20032;-91
2022/03/02 06:15:26;;;;;;;50.55;19.05;;;5.50;99.90;;;;;;4874005;29;20088;-89
2022/03/02 06:17:52;;;;;;;51.40;18.73;;;5.50;99.90;;;;;;4872533;29;20102;-89
2022/03/02 06:20:18;;;;;;;56.63;18.58;;;5.50;99.90;;;;;;4872512;29;20032;-90
2022/03/02 06:22:44;;;;;;;46.60;17.00;;;5.50;99.90;;;;;;4876602;29;20017;-89
2022/03/02 06:25:11;;;;;;;48.83;19.10;;;5.50;99.90;;;;;;4872150;29;20037;-89
2022/03/02 06:27:38;;;;;;;60.95;20.15;;;5.50;99.90;;;;;;4869904;29;20017;-89
2022/03/02 06:30:06;;;;;;;56.85;20.65;;;5.50;99.90;;;;;;4874413;29;20041;-90
2022/03/02 06:32:34;;;;;;;49.83;17.98;;;5.50;99.90;;;;;;4876026;29;20025;-90
2022/03/02 06:35:00;;;;;;;47.25;18.90;;;5.50;99.90;;;;;;4876152;29;20032;-90
2022/03/02 06:37:26;;;;;;;53.58;18.95;;;5.50;99.90;;;;;;4870325;29;20030;-90
2022/03/02 06:39:53;;;;;;;48.00;17.02;;;5.50;99.90;;;;;;4867622;29;20076;-90
2022/03/02 06:42:24;;;;;;;41.30;16.23;;;5.50;99.90;;;;;;4871953;29;20041;-92
2022/03/02 06:45:08;;;;;;;48.95;16.05;;;5.50;99.90;;;;;;4869644;29;20029;-90
2022/03/02 06:47:41;;;;;;;44.95;16.38;;;5.50;99.90;;;;;;4878005;29;20047;-90
2022/03/02 06:50:14;;;;;;;41.22;15.43;;;5.50;99.90;;;;;;4869234;29;20092;-90
2022/03/02 06:52:42;;;;;;;45.20;16.58;;;5.50;99.90;;;;;;4871627;29;20034;-88
2022/03/02 06:55:15;;;;;;;37.80;13.63;;;5.50;99.90;;;;;;4871084;29;20052;-90
2022/03/02 06:57:45;;;;;;;35.30;13.15;;;5.50;99.90;;;;;;4872410;29;20036;-89
2022/03/02 07:00:18;;;;;;;27.00;11.93;;;5.50;99.90;;;;;;4866553;29;20021;-90
2022/03/02 07:02:43;;;;;;;33.65;13.02;;;5.50;99.90;;;;;;4867546;29;20282;-89
2022/03/02 07:05:09;;;;;;;32.28;12.20;;;5.50;99.90;;;;;;4873759;29;20021;-90
2022/03/02 07:07:36;;;;;;;35.22;13.20;;;5.50;99.90;;;;;;4881057;29;20104;-90
2022/03/02 07:10:03;;;;;;;36.30;14.25;;;5.50;99.90;;;;;;4888488;29;20072;-90
2022/03/02 07:12:30;;;;;;;33.97;14.57;;;5.50;99.90;;;;;;4876414;29;20049;-90
2022/03/02 07:14:57;;;;;;;35.28;12.77;;;5.50;99.90;;;;;;4872499;29;20087;-89
2022/03/02 07:17:23;;;;;;;32.72;12.88;;;5.50;99.90;;;;;;4870992;29;20216;-90
2022/03/02 07:19:50;;;;;;;31.55;13.80;;;5.50;99.90;;;;;;4871456;29;20090;-90
2022/03/02 07:22:19;;;;;;;35.13;14.02;;;5.50;99.90;;;;;;4877380;29;20108;-90
2022/03/02 07:25:01;;;;;;;39.42;15.82;;;5.50;99.90;;;;;;4869115;29;20029;-89
2022/03/02 07:27:27;;;;;;;40.92;15.10;;;5.50;99.90;;;;;;4868714;29;20059;-90
2022/03/02 07:29:54;;;;;;;44.80;17.30;;;5.50;99.90;;;;;;4879501;29;20025;-89
2022/03/02 07:32:28;;;;;;;39.53;15.63;;;5.50;99.90;;;;;;4875769;29;20392;-90
2022/03/02 07:34:56;;;;;;;40.85;16.98;;;5.50;99.90;;;;;;4878378;29;20025;-90
2022/03/02 07:37:23;;;;;;;48.72;17.40;;;5.60;99.90;;;;;;4874693;29;20161;-90
2022/03/02 07:39:49;;;;;;;39.47;16.08;;;5.50;99.90;;;;;;4879426;29;20048;-91
2022/03/02 07:42:16;;;;;;;40.30;15.68;;;5.50;99.90;;;;;;4880861;29;20126;-90
2022/03/02 07:44:41;;;;;;;46.35;16.95;;;5.50;99.90;;;;;;4881319;29;20028;-90
2022/03/02 07:47:08;;;;;;;51.42;19.80;;;5.50;99.90;;;;;;4881457;29;20029;-93
2022/03/02 07:49:35;;;;;;;57.92;20.85;;;5.50;99.90;;;;;;4877172;29;20041;-92
2022/03/02 07:52:05;;;;;;;58.33;20.52;;;5.50;99.90;;;;;;4883107;29;20056;-91
2022/03/02 07:54:34;;;;;;;59.83;22.05;;;5.50;99.90;;;;;;4885554;29;20116;-90
2022/03/02 07:57:01;;;;;;;59.50;22.75;;;5.50;99.90;;;;;;4880208;29;20084;-91
2022/03/02 07:59:40;;;;;;;63.70;22.70;;;5.50;99.90;;;;;;4880720;29;20025;-88
2022/03/02 08:02:08;;;;;;;64.53;23.13;;;5.50;99.90;;;;;;4882011;29;20567;-89
2022/03/02 08:04:36;;;;;;;58.10;21.27;;;5.50;99.90;;;;;;4882449;29;20029;-90
2022/03/02 08:07:02;;;;;;;63.47;22.20;;;5.50;99.90;;;;;;4877234;29;20081;-90
2022/03/02 08:09:31;;;;;;;65.57;22.70;;;5.50;99.90;;;;;;4878620;29;20090;-93
2022/03/02 08:11:58;;;;;;;70.50;24.17;;;5.50;99.90;;;;;;4880323;29;20029;-92
2022/03/02 08:14:25;;;;;;;68.70;20.98;;;5.50;99.90;;;;;;4878220;29;20566;-93
2022/03/02 08:16:55;;;;;;;78.10;24.88;;;5.50;99.90;;;;;;4883911;29;20060;-94
2022/03/02 08:19:22;;;;;;;85.75;27.67;;;5.50;99.90;;;;;;4877985;29;20033;-92
2022/03/02 08:22:10;;;;;;;78.35;25.10;;;5.50;99.90;;;;;;4867689;29;20030;-92
2022/03/02 08:24:42;;;;;;;88.03;28.63;;;5.50;99.90;;;;;;4876755;29;20044;-91
2022/03/02 08:27:11;;;;;;;78.68;26.05;;;5.50;99.90;;;;;;4874613;29;20033;-92
2022/03/02 08:29:38;;;;;;;76.05;24.85;;;5.50;99.90;;;;;;4868349;29;20025;-92
2022/03/02 08:32:05;;;;;;;79.72;26.67;;;5.50;99.90;;;;;;4863602;29;20041;-92
2022/03/02 08:34:33;;;;;;;76.63;24.63;;;5.50;99.90;;;;;;4868946;29;20128;-93
2022/03/02 08:37:02;;;;;;;75.68;25.40;;;5.50;99.90;;;;;;4873602;29;20101;-92
2022/03/02 08:39:28;;;;;;;87.95;26.67;;;5.40;99.90;;;;;;4876762;29;20039;-94
2022/03/02 08:41:55;;;;;;;97.10;27.67;;;5.50;99.90;;;;;;4865770;29;20036;-94
2022/03/02 08:44:21;;;;;;;84.28;27.13;;;5.50;99.90;;;;;;4871663;29;20029;-94
2022/03/02 08:46:48;;;;;;;68.53;22.77;;;5.50;99.90;;;;;;4872237;29;20033;-94
2022/03/02 08:49:16;;;;;;;78.47;24.80;;;5.50;99.90;;;;;;4871044;29;20047;-93
2022/03/02 08:51:42;;;;;;;73.53;22.88;;;5.50;99.90;;;;;;4871389;29;20047;-93
2022/03/02 08:54:12;;;;;;;72.38;23.17;;;5.60;99.90;;;;;;4871722;29;20025;-94
2022/03/02 08:56:40;;;;;;;66.13;21.58;;;5.60;99.90;;;;;;4874316;29;20025;-93
2022/03/02 08:59:07;;;;;;;60.28;20.42;;;5.60;99.90;;;;;;4876075;29;20025;-94
2022/03/02 09:01:37;;;;;;;57.35;19.45;;;5.60;99.90;;;;;;4875094;29;20029;-91
2022/03/02 09:04:03;;;;;;;57.97;18.23;;;5.60;99.90;;;;;;4876160;29;20176;-91
2022/03/02 09:06:29;;;;;;;48.35;19.05;;;5.70;99.90;;;;;;4873960;29;20026;-92
2022/03/02 09:08:55;;;;;;;49.95;18.27;;;5.60;99.90;;;;;;4870507;29;20030;-92
2022/03/02 09:11:21;;;;;;;53.15;18.48;;;5.70;99.90;;;;;;4871023;29;20036;-91
2022/03/02 09:13:49;;;;;;;54.22;18.55;;;5.70;99.90;;;;;;4870730;29;20171;-93
2022/03/02 09:16:15;;;;;;;42.10;15.98;;;5.70;99.90;;;;;;4874506;29;20030;-92
2022/03/02 09:18:41;;;;;;;46.40;16.52;;;5.70;99.90;;;;;;4870089;29;20044;-92
2022/03/02 09:21:07;;;;;;;46.67;17.38;;;5.70;99.90;;;;;;4873225;29;20082;-91
2022/03/02 09:23:43;;;;;;;47.40;17.58;;;5.70;99.90;;;;;;4872707;29;20037;-91
2022/03/02 09:26:12;;;;;;;46.83;15.80;;;5.70;99.90;;;;;;4877892;29;20037;-94
2022/03/02 09:28:41;;;;;;;37.85;14.02;;;5.70;99.90;;;;;;4872998;29;20033;-93
2022/03/02 09:31:09;;;;;;;34.25;12.48;;;5.70;99.90;;;;;;4869948;29;20037;-92
2022/03/02 09:33:37;;;;;;;39.47;15.27;;;5.70;99.90;;;;;;4870186;29;20454;-92
2022/03/02 09:36:09;;;;;;;34.10;13.45;;;5.70;99.90;;;;;;4881336;29;20547;-92
2022/03/02 09:38:36;;;;;;;34.38;12.88;;;5.70;99.90;;;;;;4870876;29;20030;-93
2022/03/02 09:41:12;;;;;;;35.63;14.52;;;5.70;99.90;;;;;;4872704;29;20026;-92
2022/03/02 09:43:42;;;;;;;38.30;15.13;;;5.70;99.90;;;;;;4883122;29;20050;-93
2022/03/02 09:46:11;;;;;;;36.60;15.52;;;5.80;99.90;;;;;;4891098;29;20021;-91
2022/03/02 09:48:46;;;;;;;35.28;13.43;;;5.70;99.90;;;;;;4875861;29;20029;-91
2022/03/02 09:51:21;;;;;;;31.00;14.25;;;5.70;99.90;;;;;;4871920;29;20469;-90
2022/03/02 09:53:49;;;;;;;35.53;13.82;;;5.70;99.90;;;;;;4869640;29;20551;-92
2022/03/02 09:56:18;;;;;;;33.28;13.85;;;5.80;99.90;;;;;;4870752;29;20052;-90
2022/03/02 09:58:47;;;;;;;35.17;14.85;;;5.70;99.90;;;;;;4871803;29;20124;-91
2022/03/02 10:01:20;;;;;;;36.00;15.10;;;5.80;99.90;;;;;;4870577;29;20116;-93
2022/03/02 10:03:48;;;;;;;39.67;14.85;;;5.80;99.90;;;;;;4880022;29;20391;-92
2022/03/02 10:06:16;;;;;;;42.00;16.08;;;5.80;99.90;;;;;;4871372;29;20124;-93
2022/03/02 10:08:46;;;;;;;45.38;16.55;;;5.80;99.90;;;;;;4869203;29;20018;-91
2022/03/02 10:11:15;;;;;;;44.45;16.90;;;5.80;99.90;;;;;;4870194;29;20033;-92
2022/03/02 10:13:42;;;;;;;48.20;17.00;;;5.80;99.90;;;;;;4864968;29;20046;-92
2022/03/02 10:16:09;;;;;;;43.22;17.23;;;5.80;99.90;;;;;;4872744;29;20079;-92
2022/03/02 10:18:35;;;;;;;48.90;17.48;;;5.80;99.90;;;;;;4879447;29;20089;-91
2022/03/02 10:21:04;;;;;;;49.10;19.65;;;5.80;99.90;;;;;;4878879;29;20021;-94
2022/03/02 10:23:40;;;;;;;50.42;19.63;;;5.80;99.90;;;;;;4887135;29;20033;-92
2022/03/02 10:26:18;;;;;;;45.17;17.98;;;5.80;99.90;;;;;;4887899;29;20029;-94
2022/03/02 10:29:03;;;;;;;54.00;20.38;;;5.80;99.90;;;;;;4880013;29;20402;-92
2022/03/02 10:31:56;;;;;;;52.28;17.30;;;5.80;99.90;;;;;;4878936;29;20622;-92
2022/03/02 10:34:25;;;;;;;44.92;17.63;;;5.80;99.90;;;;;;4881076;29;20044;-91
2022/03/02 10:37:19;;;;;;;45.95;18.17;;;5.80;99.90;;;;;;4880824;29;20136;-92
2022/03/02 10:39:56;;;;;;;49.85;17.73;;;5.80;99.90;;;;;;4881501;29;20566;-92
2022/03/02 10:42:30;;;;;;;48.15;17.13;;;5.80;99.90;;;;;;4883996;29;20039;-93
2022/03/02 10:45:21;;;;;;;41.97;17.77;;;5.80;99.90;;;;;;4886847;29;20029;-92
2022/03/02 10:47:57;;;;;;;39.95;16.80;;;5.80;99.90;;;;;;4881764;29;20064;-91
2022/03/02 10:50:26;;;;;;;44.83;15.95;;;5.80;99.90;;;;;;4886182;29;20500;-94
2022/03/02 10:52:54;;;;;;;35.47;14.15;;;5.90;99.90;;;;;;4882181;29;20029;-90
2022/03/02 10:55:22;;;;;;;43.72;16.05;;;5.90;99.90;;;;;;4880336;29;20037;-91
2022/03/02 10:57:49;;;;;;;34.10;14.07;;;5.90;99.90;;;;;;4869728;29;20030;-90
2022/03/02 11:00:19;;;;;;;34.20;14.30;;;5.90;99.90;;;;;;4861355;29;20033;-91
2022/03/02 11:02:48;;;;;;;34.92;14.48;;;5.90;99.90;;;;;;4864945;29;20131;-92
2022/03/02 11:05:16;;;;;;;35.92;14.85;;;5.90;99.90;;;;;;4872081;29;20037;-92
2022/03/02 11:07:42;;;;;;;33.80;14.27;;;5.90;99.90;;;;;;4875318;29;20391;-92
2022/03/02 11:10:11;;;;;;;36.75;15.25;;;5.90;99.90;;;;;;4877351;29;20488;-91
2022/03/02 11:12:42;;;;;;;41.15;16.85;;;5.90;99.90;;;;;;4880417;29;20123;-91
2022/03/02 11:15:09;;;;;;;31.10;14.57;;;5.90;99.90;;;;;;4880187;29;20131;-91
2022/03/02 11:17:36;;;;;;;41.97;17.45;;;5.90;99.90;;;;;;4880515;29;20021;-90
2022/03/02 11:20:10;;;;;;;41.05;15.95;;;5.90;99.90;;;;;;4879854;29;20033;-91
2022/03/02 11:22:36;;;;;;;37.67;16.65;;;5.90;99.90;;;;;;4880215;29;20132;-92
2022/03/02 11:25:03;;;;;;;38.03;15.32;;;5.90;99.90;;;;;;4878168;29;20025;-91
2022/03/02 11:27:41;;;;;;;43.45;18.20;;;5.90;99.90;;;;;;4877835;29;20116;-91
2022/03/02 11:30:14;;;;;;;44.55;18.40;;;5.90;99.90;;;;;;4879639;29;20037;-92
2022/03/02 11:32:45;;;;;;;43.35;19.90;;;5.90;99.90;;;;;;4869690;29;20025;-91
2022/03/02 11:35:14;;;;;;;39.40;17.70;;;5.90;99.90;;;;;;4880105;29;20021;-91
2022/03/02 11:37:41;;;;;;;41.40;18.77;;;5.90;99.90;;;;;;4875066;29;20037;-91
2022/03/02 11:40:11;;;;;;;46.72;18.95;;;6.00;99.90;;;;;;4875325;29;20071;-93
2022/03/02 11:42:40;;;;;;;47.90;20.65;;;5.90;99.90;;;;;;4871264;29;20026;-91
2022/03/02 11:45:11;;;;;;;44.58;19.55;;;5.90;99.90;;;;;;4872077;29;20388;-91
2022/03/02 11:47:43;;;;;;;50.00;20.65;;;6.00;99.90;;;;;;4876203;29;20085;-92
2022/03/02 11:50:11;;;;;;;44.75;20.10;;;6.00;99.90;;;;;;4868321;29;20462;-93
2022/03/02 11:52:48;;;;;;;48.05;20.63;;;6.00;99.90;;;;;;4872138;29;20053;-92
2022/03/02 11:55:16;;;;;;;53.83;22.17;;;6.00;99.90;;;;;;4868311;29;20070;-91
2022/03/02 11:57:50;;;;;;;53.30;22.15;;;6.00;99.90;;;;;;4874399;29;20025;-91
2022/03/02 12:00:44;;;;;;;53.92;23.17;;;6.00;99.90;;;;;;4873097;29;20097;-94
2022/03/02 12:03:10;;;;;;;58.90;26.08;;;6.00;99.90;;;;;;4879097;29;20148;-93
2022/03/02 12:05:36;;;;;;;63.35;27.42;;;6.00;99.90;;;;;;4866084;29;20053;-94
2022/03/02 12:08:04;;;;;;;58.30;27.38;;;6.00;99.90;;;;;;4871951;29;20388;-93
2022/03/02 12:10:37;;;;;;;63.25;29.48;;;6.00;99.90;;;;;;4868052;29;20064;-94
2022/03/02 12:13:04;;;;;;;54.40;23.58;;;6.00;99.90;;;;;;4866941;29;20934;-92
2022/03/02 12:15:45;;;;;;;61.88;29.23;;;6.00;99.90;;;;;;4871124;29;20108;-94
2022/03/02 12:18:13;;;;;;;64.50;31.13;;;6.00;99.90;;;;;;4867261;29;20112;-93
2022/03/02 12:20:50;;;;;;;65.40;30.25;;;6.00;99.90;;;;;;4871657;29;20128;-93
2022/03/02 12:23:22;;;;;;;63.50;30.90;;;6.00;99.90;;;;;;4870221;29;20475;-93
2022/03/02 12:25:48;;;;;;;68.50;30.40;;;6.00;99.90;;;;;;4870759;29;20037;-92
2022/03/02 12:28:16;;;;;;;71.18;32.42;;;6.00;99.90;;;;;;4862785;29;20033;-93
2022/03/02 12:30:43;;;;;;;65.68;29.35;;;6.00;99.90;;;;;;4860965;29;20041;-92
2022/03/02 12:33:10;;;;;;;71.45;32.08;;;6.00;99.90;;;;;;4868261;29;20029;-93
2022/03/02 12:35:36;;;;;;;68.60;32.42;;;6.00;99.90;;;;;;4868395;29;20025;-94
2022/03/02 12:38:09;;;;;;;76.00;33.65;;;6.00;99.90;;;;;;4871390;29;20097;-93
2022/03/02 12:40:42;;;;;;;74.75;33.72;;;6.00;99.90;;;;;;4862607;29;20472;-91
2022/03/02 12:43:14;;;;;;;69.25;31.80;;;6.00;99.90;;;;;;4860138;29;20092;-92
2022/03/02 12:45:42;;;;;;;70.68;32.80;;;5.90;99.90;;;;;;4861037;29;20033;-93
2022/03/02 12:48:09;;;;;;;77.47;34.60;;;5.90;99.90;;;;;;4871248;29;20029;-92